Sichem Manila — 9HA3324 — position and weather

sailwx.info

Track history (hours):
 
Tides and Currents Weather Stations Pressure Air Temp Water Temp Dewpoint Dewpoint Depression Visibility Wind Speed Wind Dir Waves Ship Positions

Sichem Manila

Last reported at 2017-Nov-03 21:21 UTC. Time now 2017-Nov-18 17:44 UTC.
Position N 35°56' E 014°53'.
Warning: this ship's position is 14 days out of date.

Length 129 m; draft 8.7 m.

Type: Tanker. MMSI: 229432000.

Date/timePositionNaut miles runAvg speedWind from/ knotsBaromVisibWave heightAir tempDewpointWater temp
2017-Nov-03 21:21N 35°56' E 014°53'2 4.5
2017-Nov-03 21:00N 35°57' E 014°51'4 8.1
2017-Nov-03 20:29N 36°01' E 014°50'1011.3
2017-Nov-03 19:39N 36°10' E 014°47'212.5
2017-Nov-03 19:30N 36°11' E 014°45'612.5
2017-Nov-03 19:00N 36°13' E 014°38'612.7
2017-Nov-03 18:30N 36°15' E 014°31'612.6
2017-Nov-03 18:00N 36°18' E 014°24'612.5
2017-Nov-03 17:30N 36°20' E 014°16'612.5
2017-Nov-03 17:00N 36°23' E 014°09'612.5
2017-Nov-03 16:30N 36°25' E 014°02'612.5
2017-Nov-03 16:00N 36°28' E 013°55'612.4
2017-Nov-03 15:30N 36°30' E 013°48'  
2017-Oct-31 08:40N 36°02' W 005°19'3 7.5
2017-Oct-31 08:16N 36°02' W 005°22'13911.0
2017-Oct-30 19:41N 36°17' W 008°13'1112.0
2017-Oct-30 18:46N 36°19' W 008°27'311.8
2017-Oct-30 18:30N 36°20' W 008°30'612.0
2017-Oct-30 17:59N 36°21' W 008°38'612.0
2017-Oct-30 17:30N 36°22' W 008°45'611.7
2017-Oct-30 16:59N 36°24' W 008°52'611.8
2017-Oct-30 16:30N 36°25' W 008°59'612.2
2017-Oct-30 16:00N 36°27' W 009°06'812.3
2017-Oct-30 15:23N 36°29' W 009°16'512.4
2017-Oct-30 15:00N 36°31' W 009°21'1212.5
2017-Oct-30 14:00N 36°40' W 009°32'612.6
2017-Oct-30 13:30N 36°45' W 009°37'612.6
2017-Oct-30 13:00N 36°51' W 009°39'612.9
2017-Oct-30 12:31N 36°57' W 009°41'712.9
2017-Oct-30 12:00N 37°03' W 009°43'612.4
2017-Oct-30 11:30N 37°09' W 009°45'612.3
2017-Oct-30 11:01N 37°15' W 009°46'612.4
2017-Oct-30 10:30N 37°21' W 009°48'612.2
2017-Oct-30 10:00N 37°27' W 009°50'612.1
2017-Oct-30 09:30N 37°33' W 009°52'612.1
2017-Oct-30 09:00N 37°39' W 009°53'611.9
2017-Oct-30 08:30N 37°45' W 009°55'611.9
2017-Oct-30 08:00N 37°50' W 009°57'611.8
2017-Oct-30 07:30N 37°56' W 009°58'611.7
2017-Oct-30 07:00N 38°02' W 009°60'611.9
2017-Oct-30 06:30N 38°08' W 010°01'611.8
2017-Oct-30 06:00N 38°13' W 010°03'611.9
2017-Oct-30 05:31N 38°19' W 010°05'612.0
2017-Oct-30 05:00N 38°25' W 010°07'612.0
2017-Oct-30 04:30N 38°31' W 010°08'612.0
2017-Oct-30 04:00N 38°37' W 010°10'611.8
2017-Oct-30 03:30N 38°42' W 010°12'612.0
2017-Oct-30 03:00N 38°48' W 010°12'612.1
2017-Oct-30 02:30N 38°54' W 010°12'612.1
2017-Oct-30 02:01N 39°01' W 010°12'612.2
2017-Oct-30 01:31N 39°07' W 010°12'612.5
2017-Oct-30 01:01N 39°13' W 010°12'612.2
2017-Oct-30 00:31N 39°19' W 010°12'612.1
2017-Oct-30 00:01N 39°25' W 010°11'611.9
2017-Oct-29 23:30N 39°31' W 010°11'612.0
2017-Oct-29 23:01N 39°37' W 010°11'611.9
2017-Oct-29 22:30N 39°43' W 010°12'1212.0
2017-Oct-29 21:29N 39°55' W 010°12'612.3
2017-Oct-29 21:00N 40°01' W 010°12'612.3
2017-Oct-29 20:31N 40°07' W 010°12'612.4
2017-Oct-29 20:00N 40°13' W 010°12'612.5
2017-Oct-29 19:31N 40°20' W 010°12'612.5
2017-Oct-29 19:00N 40°26' W 010°11'612.6
2017-Oct-29 18:30N 40°32' W 010°11'612.5
2017-Oct-29 18:00N 40°38' W 010°11'612.4
2017-Oct-29 17:30N 40°45' W 010°10'612.2
2017-Oct-29 17:00N 40°51' W 010°11'612.2
2017-Oct-29 16:30N 40°57' W 010°11'37511.5
2017-Oct-28 08:01N 46°52' W 007°27'112.2
2017-Oct-28 07:56N 46°53' W 007°26'1011.7
2017-Oct-28 07:06N 47°02' W 007°19'7012.0
2017-Oct-28 01:17N 48°03' W 006°29'512.5
2017-Oct-28 00:54N 48°07' W 006°26'512.5
2017-Oct-28 00:30N 48°12' W 006°22'612.4
2017-Oct-28 00:00N 48°17' W 006°17'612.3
2017-Oct-27 23:30N 48°22' W 006°13'612.3
2017-Oct-27 23:00N 48°28' W 006°08'612.0
2017-Oct-27 22:30N 48°33' W 006°04'612.1
2017-Oct-27 22:00N 48°39' W 006°00'611.8
2017-Oct-27 21:29N 48°44' W 005°56'511.7
2017-Oct-27 21:00N 48°49' W 005°52'611.4
2017-Oct-27 20:30N 48°54' W 005°48'611.4
2017-Oct-27 19:59N 48°57' W 005°40'611.3
2017-Oct-27 19:27N 48°60' W 005°32'711.5
2017-Oct-27 18:50N 49°04' W 005°23'411.5
2017-Oct-27 18:30N 49°06' W 005°18'711.5
2017-Oct-27 17:55N 49°09' W 005°09'1011.9
2017-Oct-27 17:05N 49°14' W 004°56'212.0
2017-Oct-27 16:56N 49°14' W 004°53'712.3
2017-Oct-27 16:21N 49°18' W 004°44'612.3
2017-Oct-27 15:49N 49°21' W 004°35'412.5
2017-Oct-27 15:29N 49°23' W 004°30'2912.4
2017-Oct-27 13:07N 49°38' W 003°50'1611.9
2017-Oct-27 11:45N 49°46' W 003°29'311.5
2017-Oct-27 11:30N 49°48' W 003°25'611.4
2017-Oct-27 11:01N 49°51' W 003°18'611.4
2017-Oct-27 10:28N 49°54' W 003°09'511.4
2017-Oct-27 10:01N 49°57' W 003°02'611.4
2017-Oct-27 09:30N 49°59' W 002°54'611.9
2017-Oct-27 09:01N 50°01' W 002°46'9113.0
2017-Oct-27 02:03N 50°24' W 000°29'110.8
2017-Oct-27 02:00N 50°25' W 000°28'510.6
2017-Oct-27 01:30N 50°26' W 000°20'510.7
2017-Oct-27 01:00N 50°28' W 000°12'510.5
2017-Oct-27 00:30N 50°29' W 000°04'510.4
2017-Oct-27 00:00N 50°31' E 000°04'510.6
2017-Oct-26 23:30N 50°32' E 000°12'510.9
2017-Oct-26 23:00N 50°34' E 000°20'611.3
2017-Oct-26 22:30N 50°35' E 000°28'611.8
2017-Oct-26 22:00N 50°37' E 000°37'612.3
2017-Oct-26 21:30N 50°41' E 000°45'612.7
2017-Oct-26 21:00N 50°44' E 000°53'613.0
2017-Oct-26 20:30N 50°48' E 001°01'612.9
2017-Oct-26 20:00N 50°53' E 001°09'612.6
2017-Oct-26 19:29N 50°57' E 001°16'612.2
2017-Oct-26 19:00N 51°01' E 001°23'611.6
2017-Oct-26 18:30N 51°05' E 001°30'611.1
2017-Oct-26 18:00N 51°08' E 001°37'510.7
2017-Oct-26 17:30N 51°12' E 001°43'510.7
2017-Oct-26 17:00N 51°16' E 001°48'510.7
2017-Oct-26 16:30N 51°21' E 001°53'510.7
2017-Oct-26 16:00N 51°25' E 001°58'510.7
2017-Oct-26 15:30N 51°24' E 002°06'611.4
2017-Oct-26 15:00N 51°21' E 002°15'510.7
2017-Oct-26 14:30N 51°22' E 002°23'1111.4
2017-Oct-26 13:32N 51°23' E 002°41'111.8
2017-Oct-26 13:27N 51°23' E 002°42'7 9.6
2017-Oct-26 12:45N 51°22' E 002°53'312.7
2017-Oct-26 12:30N 51°23' E 002°58'611.6
2017-Oct-26 12:00N 51°24' E 003°07'612.6
2017-Oct-26 11:30N 51°25' E 003°17'612.6
2017-Oct-26 11:00N 51°25' E 003°27'4 8.4
2017-Oct-26 10:30N 51°26' E 003°34'5 9.8
2017-Oct-26 10:00N 51°26' E 003°42'612.8
2017-Oct-26 09:30N 51°21' E 003°49'612.6
2017-Oct-26 09:00N 51°24' E 003°57'4 7.4
2017-Oct-26 08:31N 51°23' E 004°03'612.1
2017-Oct-26 08:00N 51°24' E 004°12'4 8.5
2017-Oct-26 07:30N 51°21' E 004°17'0 0.0
2017-Oct-26 07:00N 51°21' E 004°17'0 0.2
2017-Oct-26 06:30N 51°21' E 004°17'3 6.5
2017-Oct-26 06:00N 51°18' E 004°20'2 4.0
2017-Oct-26 05:30N 51°16' E 004°22'0 0.3
2017-Oct-26 05:00N 51°16' E 004°21'0 0.0
2017-Oct-26 04:30N 51°16' E 004°21'0 0.0
2017-Oct-26 04:00N 51°16' E 004°21'0 0.0
2017-Oct-26 03:30N 51°16' E 004°21'0 0.0
2017-Oct-26 03:00N 51°16' E 004°21'0 0.0
2017-Oct-26 02:30N 51°16' E 004°21'0 0.0
2017-Oct-26 02:00N 51°16' E 004°21'0 0.0
2017-Oct-26 01:30N 51°16' E 004°21'0 0.0
2017-Oct-26 01:00N 51°16' E 004°21'0 0.0
2017-Oct-26 00:30N 51°16' E 004°21'0 0.0
2017-Oct-26 00:00N 51°16' E 004°21'0 0.0
2017-Oct-25 23:30N 51°16' E 004°21'0 0.0
2017-Oct-25 23:00N 51°16' E 004°21'0 0.0
2017-Oct-25 22:30N 51°16' E 004°21'0 0.0
2017-Oct-25 22:00N 51°16' E 004°21'0 0.0
2017-Oct-25 21:30N 51°16' E 004°21'0 0.0
2017-Oct-25 21:00N 51°16' E 004°21'0 0.0
2017-Oct-25 20:30N 51°16' E 004°21'0 0.0
2017-Oct-25 20:00N 51°16' E 004°21'0 0.0
2017-Oct-25 19:30N 51°16' E 004°21'0 0.0
2017-Oct-25 19:00N 51°16' E 004°21'0 0.0
2017-Oct-25 18:30N 51°16' E 004°21'0 0.0
2017-Oct-25 18:00N 51°16' E 004°21'0 0.0
2017-Oct-25 17:30N 51°16' E 004°21'0 0.0
2017-Oct-25 17:00N 51°16' E 004°21'0 0.0
2017-Oct-25 16:30N 51°16' E 004°21'0 0.0
2017-Oct-25 16:00N 51°16' E 004°21'0 0.0
2017-Oct-25 15:30N 51°16' E 004°21'0 0.0
2017-Oct-25 14:57N 51°16' E 004°21'0 0.0
2017-Oct-25 14:27N 51°16' E 004°21'0 0.0
2017-Oct-25 14:00N 51°16' E 004°21'0 0.0
2017-Oct-25 13:30N 51°16' E 004°21'0 0.0
2017-Oct-25 12:57N 51°16' E 004°21'0 0.0
2017-Oct-25 12:30N 51°16' E 004°21'0 0.0
2017-Oct-25 12:00N 51°16' E 004°21'0 0.0
2017-Oct-25 11:30N 51°16' E 004°21'0 0.0
2017-Oct-25 11:00N 51°16' E 004°21'0 0.0
2017-Oct-25 10:30N 51°16' E 004°21'0 0.0
2017-Oct-25 09:54N 51°16' E 004°21'0 0.0
2017-Oct-25 09:30N 51°16' E 004°21'0 0.0
2017-Oct-25 09:00N 51°16' E 004°21'0 0.0
2017-Oct-25 08:30N 51°16' E 004°21'0 0.0
2017-Oct-25 08:00N 51°16' E 004°21'0 0.0
2017-Oct-25 07:30N 51°16' E 004°21'0 0.0
2017-Oct-25 07:00N 51°16' E 004°21'0 0.0
2017-Oct-25 06:27N 51°16' E 004°21'0 0.0
2017-Oct-25 06:00N 51°16' E 004°21'0 0.0
2017-Oct-25 05:30N 51°16' E 004°21'0 0.0
2017-Oct-25 05:00N 51°16' E 004°21'0 0.0
2017-Oct-25 04:30N 51°16' E 004°21'0 0.0
2017-Oct-25 04:00N 51°16' E 004°21'0 0.0
2017-Oct-25 03:30N 51°16' E 004°21'1 1.8
2017-Oct-25 03:00N 51°17' E 004°20'3 6.2
2017-Oct-25 02:30N 51°20' E 004°18'1 2.7
2017-Oct-25 02:00N 51°21' E 004°17'0 0.0
2017-Oct-25 01:30N 51°21' E 004°17'1 2.2
2017-Oct-25 01:00N 51°21' E 004°15'4 8.2
2017-Oct-25 00:31N 51°23' E 004°09'510.0
2017-Oct-25 00:01N 51°25' E 004°02'4 7.8
2017-Oct-24 23:30N 51°23' E 003°56'611.3
2017-Oct-24 23:01N 51°21' E 003°48'611.9
2017-Oct-24 22:30N 51°25' E 003°40'5 9.7
2017-Oct-24 22:00N 51°27' E 003°33'612.6
2017-Oct-24 21:30N 51°31' E 003°26'  
Track history (hours):
 
Tides and Currents Weather Stations Pressure Air Temp Water Temp Dewpoint Dewpoint Depression Visibility Wind Speed Wind Dir Waves Ship Positions

Sichem Manila

Last reported at 2017-Nov-03 21:21 UTC. Time now 2017-Nov-18 17:44 UTC.
Position N 35°56' E 014°53'.
Warning: this ship's position is 14 days out of date.

Length 129 m; draft 8.7 m.

Type: Tanker. MMSI: 229432000.

Date/timePositionNaut miles runAvg speedWind from/ knotsBaromVisibWave heightAir tempDewpointWater temp
2017-Nov-03 21:21N 35°56' E 014°53'2 4.5
2017-Nov-03 21:00N 35°57' E 014°51'4 8.1
2017-Nov-03 20:29N 36°01' E 014°50'1011.3
2017-Nov-03 19:39N 36°10' E 014°47'212.5
2017-Nov-03 19:30N 36°11' E 014°45'612.5
2017-Nov-03 19:00N 36°13' E 014°38'612.7
2017-Nov-03 18:30N 36°15' E 014°31'612.6
2017-Nov-03 18:00N 36°18' E 014°24'612.5
2017-Nov-03 17:30N 36°20' E 014°16'612.5
2017-Nov-03 17:00N 36°23' E 014°09'612.5
2017-Nov-03 16:30N 36°25' E 014°02'612.5
2017-Nov-03 16:00N 36°28' E 013°55'612.4
2017-Nov-03 15:30N 36°30' E 013°48'  
2017-Oct-31 08:40N 36°02' W 005°19'3 7.5
2017-Oct-31 08:16N 36°02' W 005°22'13911.0
2017-Oct-30 19:41N 36°17' W 008°13'1112.0
2017-Oct-30 18:46N 36°19' W 008°27'311.8
2017-Oct-30 18:30N 36°20' W 008°30'612.0
2017-Oct-30 17:59N 36°21' W 008°38'612.0
2017-Oct-30 17:30N 36°22' W 008°45'611.7
2017-Oct-30 16:59N 36°24' W 008°52'611.8
2017-Oct-30 16:30N 36°25' W 008°59'612.2
2017-Oct-30 16:00N 36°27' W 009°06'812.3
2017-Oct-30 15:23N 36°29' W 009°16'512.4
2017-Oct-30 15:00N 36°31' W 009°21'1212.5
2017-Oct-30 14:00N 36°40' W 009°32'612.6
2017-Oct-30 13:30N 36°45' W 009°37'612.6
2017-Oct-30 13:00N 36°51' W 009°39'612.9
2017-Oct-30 12:31N 36°57' W 009°41'712.9
2017-Oct-30 12:00N 37°03' W 009°43'612.4
2017-Oct-30 11:30N 37°09' W 009°45'612.3
2017-Oct-30 11:01N 37°15' W 009°46'612.4
2017-Oct-30 10:30N 37°21' W 009°48'612.2
2017-Oct-30 10:00N 37°27' W 009°50'612.1
2017-Oct-30 09:30N 37°33' W 009°52'612.1
2017-Oct-30 09:00N 37°39' W 009°53'611.9
2017-Oct-30 08:30N 37°45' W 009°55'611.9
2017-Oct-30 08:00N 37°50' W 009°57'611.8
2017-Oct-30 07:30N 37°56' W 009°58'611.7
2017-Oct-30 07:00N 38°02' W 009°60'611.9
2017-Oct-30 06:30N 38°08' W 010°01'611.8
2017-Oct-30 06:00N 38°13' W 010°03'611.9
2017-Oct-30 05:31N 38°19' W 010°05'612.0
2017-Oct-30 05:00N 38°25' W 010°07'612.0
2017-Oct-30 04:30N 38°31' W 010°08'612.0
2017-Oct-30 04:00N 38°37' W 010°10'611.8
2017-Oct-30 03:30N 38°42' W 010°12'612.0
2017-Oct-30 03:00N 38°48' W 010°12'612.1
2017-Oct-30 02:30N 38°54' W 010°12'612.1
2017-Oct-30 02:01N 39°01' W 010°12'612.2
2017-Oct-30 01:31N 39°07' W 010°12'612.5
2017-Oct-30 01:01N 39°13' W 010°12'612.2
2017-Oct-30 00:31N 39°19' W 010°12'612.1
2017-Oct-30 00:01N 39°25' W 010°11'611.9
2017-Oct-29 23:30N 39°31' W 010°11'612.0
2017-Oct-29 23:01N 39°37' W 010°11'611.9
2017-Oct-29 22:30N 39°43' W 010°12'1212.0
2017-Oct-29 21:29N 39°55' W 010°12'612.3
2017-Oct-29 21:00N 40°01' W 010°12'612.3
2017-Oct-29 20:31N 40°07' W 010°12'612.4
2017-Oct-29 20:00N 40°13' W 010°12'612.5
2017-Oct-29 19:31N 40°20' W 010°12'612.5
2017-Oct-29 19:00N 40°26' W 010°11'612.6
2017-Oct-29 18:30N 40°32' W 010°11'612.5
2017-Oct-29 18:00N 40°38' W 010°11'612.4
2017-Oct-29 17:30N 40°45' W 010°10'612.2
2017-Oct-29 17:00N 40°51' W 010°11'612.2
2017-Oct-29 16:30N 40°57' W 010°11'37511.5
2017-Oct-28 08:01N 46°52' W 007°27'112.2
2017-Oct-28 07:56N 46°53' W 007°26'1011.7
2017-Oct-28 07:06N 47°02' W 007°19'7012.0
2017-Oct-28 01:17N 48°03' W 006°29'512.5
2017-Oct-28 00:54N 48°07' W 006°26'512.5
2017-Oct-28 00:30N 48°12' W 006°22'612.4
2017-Oct-28 00:00N 48°17' W 006°17'612.3
2017-Oct-27 23:30N 48°22' W 006°13'612.3
2017-Oct-27 23:00N 48°28' W 006°08'612.0
2017-Oct-27 22:30N 48°33' W 006°04'612.1
2017-Oct-27 22:00N 48°39' W 006°00'611.8
2017-Oct-27 21:29N 48°44' W 005°56'511.7
2017-Oct-27 21:00N 48°49' W 005°52'611.4
2017-Oct-27 20:30N 48°54' W 005°48'611.4
2017-Oct-27 19:59N 48°57' W 005°40'611.3
2017-Oct-27 19:27N 48°60' W 005°32'711.5
2017-Oct-27 18:50N 49°04' W 005°23'411.5
2017-Oct-27 18:30N 49°06' W 005°18'711.5
2017-Oct-27 17:55N 49°09' W 005°09'1011.9
2017-Oct-27 17:05N 49°14' W 004°56'212.0
2017-Oct-27 16:56N 49°14' W 004°53'712.3
2017-Oct-27 16:21N 49°18' W 004°44'612.3
2017-Oct-27 15:49N 49°21' W 004°35'412.5
2017-Oct-27 15:29N 49°23' W 004°30'2912.4
2017-Oct-27 13:07N 49°38' W 003°50'1611.9
2017-Oct-27 11:45N 49°46' W 003°29'311.5
2017-Oct-27 11:30N 49°48' W 003°25'611.4
2017-Oct-27 11:01N 49°51' W 003°18'611.4
2017-Oct-27 10:28N 49°54' W 003°09'511.4
2017-Oct-27 10:01N 49°57' W 003°02'611.4
2017-Oct-27 09:30N 49°59' W 002°54'611.9
2017-Oct-27 09:01N 50°01' W 002°46'9113.0
2017-Oct-27 02:03N 50°24' W 000°29'110.8
2017-Oct-27 02:00N 50°25' W 000°28'510.6
2017-Oct-27 01:30N 50°26' W 000°20'510.7
2017-Oct-27 01:00N 50°28' W 000°12'510.5
2017-Oct-27 00:30N 50°29' W 000°04'510.4
2017-Oct-27 00:00N 50°31' E 000°04'510.6
2017-Oct-26 23:30N 50°32' E 000°12'510.9
2017-Oct-26 23:00N 50°34' E 000°20'611.3
2017-Oct-26 22:30N 50°35' E 000°28'611.8
2017-Oct-26 22:00N 50°37' E 000°37'612.3
2017-Oct-26 21:30N 50°41' E 000°45'612.7
2017-Oct-26 21:00N 50°44' E 000°53'613.0
2017-Oct-26 20:30N 50°48' E 001°01'612.9
2017-Oct-26 20:00N 50°53' E 001°09'612.6
2017-Oct-26 19:29N 50°57' E 001°16'612.2
2017-Oct-26 19:00N 51°01' E 001°23'611.6
2017-Oct-26 18:30N 51°05' E 001°30'611.1
2017-Oct-26 18:00N 51°08' E 001°37'510.7
2017-Oct-26 17:30N 51°12' E 001°43'510.7
2017-Oct-26 17:00N 51°16' E 001°48'510.7
2017-Oct-26 16:30N 51°21' E 001°53'510.7
2017-Oct-26 16:00N 51°25' E 001°58'510.7
2017-Oct-26 15:30N 51°24' E 002°06'611.4
2017-Oct-26 15:00N 51°21' E 002°15'510.7
2017-Oct-26 14:30N 51°22' E 002°23'1111.4
2017-Oct-26 13:32N 51°23' E 002°41'111.8
2017-Oct-26 13:27N 51°23' E 002°42'7 9.6
2017-Oct-26 12:45N 51°22' E 002°53'312.7
2017-Oct-26 12:30N 51°23' E 002°58'611.6
2017-Oct-26 12:00N 51°24' E 003°07'612.6
2017-Oct-26 11:30N 51°25' E 003°17'612.6
2017-Oct-26 11:00N 51°25' E 003°27'4 8.4
2017-Oct-26 10:30N 51°26' E 003°34'5 9.8
2017-Oct-26 10:00N 51°26' E 003°42'612.8
2017-Oct-26 09:30N 51°21' E 003°49'612.6
2017-Oct-26 09:00N 51°24' E 003°57'4 7.4
2017-Oct-26 08:31N 51°23' E 004°03'612.1
2017-Oct-26 08:00N 51°24' E 004°12'4 8.5
2017-Oct-26 07:30N 51°21' E 004°17'0 0.0
2017-Oct-26 07:00N 51°21' E 004°17'0 0.2
2017-Oct-26 06:30N 51°21' E 004°17'3 6.5
2017-Oct-26 06:00N 51°18' E 004°20'2 4.0
2017-Oct-26 05:30N 51°16' E 004°22'0 0.3
2017-Oct-26 05:00N 51°16' E 004°21'0 0.0
2017-Oct-26 04:30N 51°16' E 004°21'0 0.0
2017-Oct-26 04:00N 51°16' E 004°21'0 0.0
2017-Oct-26 03:30N 51°16' E 004°21'0 0.0
2017-Oct-26 03:00N 51°16' E 004°21'0 0.0
2017-Oct-26 02:30N 51°16' E 004°21'0 0.0
2017-Oct-26 02:00N 51°16' E 004°21'0 0.0
2017-Oct-26 01:30N 51°16' E 004°21'0 0.0
2017-Oct-26 01:00N 51°16' E 004°21'0 0.0
2017-Oct-26 00:30N 51°16' E 004°21'0 0.0
2017-Oct-26 00:00N 51°16' E 004°21'0 0.0
2017-Oct-25 23:30N 51°16' E 004°21'0 0.0
2017-Oct-25 23:00N 51°16' E 004°21'0 0.0
2017-Oct-25 22:30N 51°16' E 004°21'0 0.0
2017-Oct-25 22:00N 51°16' E 004°21'0 0.0
2017-Oct-25 21:30N 51°16' E 004°21'0 0.0
2017-Oct-25 21:00N 51°16' E 004°21'0 0.0
2017-Oct-25 20:30N 51°16' E 004°21'0 0.0
2017-Oct-25 20:00N 51°16' E 004°21'0 0.0
2017-Oct-25 19:30N 51°16' E 004°21'0 0.0
2017-Oct-25 19:00N 51°16' E 004°21'0 0.0
2017-Oct-25 18:30N 51°16' E 004°21'0 0.0
2017-Oct-25 18:00N 51°16' E 004°21'0 0.0
2017-Oct-25 17:30N 51°16' E 004°21'0 0.0
2017-Oct-25 17:00N 51°16' E 004°21'0 0.0
2017-Oct-25 16:30N 51°16' E 004°21'0 0.0
2017-Oct-25 16:00N 51°16' E 004°21'0 0.0
2017-Oct-25 15:30N 51°16' E 004°21'0 0.0
2017-Oct-25 14:57N 51°16' E 004°21'0 0.0
2017-Oct-25 14:27N 51°16' E 004°21'0 0.0
2017-Oct-25 14:00N 51°16' E 004°21'0 0.0
2017-Oct-25 13:30N 51°16' E 004°21'0 0.0
2017-Oct-25 12:57N 51°16' E 004°21'0 0.0
2017-Oct-25 12:30N 51°16' E 004°21'0 0.0
2017-Oct-25 12:00N 51°16' E 004°21'0 0.0
2017-Oct-25 11:30N 51°16' E 004°21'0 0.0
2017-Oct-25 11:00N 51°16' E 004°21'0 0.0
2017-Oct-25 10:30N 51°16' E 004°21'0 0.0
2017-Oct-25 09:54N 51°16' E 004°21'0 0.0
2017-Oct-25 09:30N 51°16' E 004°21'0 0.0
2017-Oct-25 09:00N 51°16' E 004°21'0 0.0
2017-Oct-25 08:30N 51°16' E 004°21'0 0.0
2017-Oct-25 08:00N 51°16' E 004°21'0 0.0
2017-Oct-25 07:30N 51°16' E 004°21'0 0.0
2017-Oct-25 07:00N 51°16' E 004°21'0 0.0
2017-Oct-25 06:27N 51°16' E 004°21'0 0.0
2017-Oct-25 06:00N 51°16' E 004°21'0 0.0
2017-Oct-25 05:30N 51°16' E 004°21'0 0.0
2017-Oct-25 05:00N 51°16' E 004°21'0 0.0
2017-Oct-25 04:30N 51°16' E 004°21'0 0.0
2017-Oct-25 04:00N 51°16' E 004°21'0 0.0
2017-Oct-25 03:30N 51°16' E 004°21'1 1.8
2017-Oct-25 03:00N 51°17' E 004°20'3 6.2
2017-Oct-25 02:30N 51°20' E 004°18'1 2.7
2017-Oct-25 02:00N 51°21' E 004°17'0 0.0
2017-Oct-25 01:30N 51°21' E 004°17'1 2.2
2017-Oct-25 01:00N 51°21' E 004°15'4 8.2
2017-Oct-25 00:31N 51°23' E 004°09'510.0
2017-Oct-25 00:01N 51°25' E 004°02'4 7.8
2017-Oct-24 23:30N 51°23' E 003°56'611.3
2017-Oct-24 23:01N 51°21' E 003°48'611.9
2017-Oct-24 22:30N 51°25' E 003°40'5 9.7
2017-Oct-24 22:00N 51°27' E 003°33'612.6
2017-Oct-24 21:30N 51°31' E 003°26'  

Dump ship's entire track history